sensor_id;sensor_type;location;lat;lon;timestamp;P1;durP1;ratioP1;P2;durP2;ratioP2
3355;SDS011;1691;52.486;13.374;2024-02-21T00:04:57;20.57;;;6.80;;
3355;SDS011;1691;52.486;13.374;2024-02-21T00:07:24;20.67;;;6.10;;
3355;SDS011;1691;52.486;13.374;2024-02-21T00:09:52;19.40;;;5.87;;
3355;SDS011;1691;52.486;13.374;2024-02-21T00:12:19;22.70;;;7.07;;
3355;SDS011;1691;52.486;13.374;2024-02-21T00:14:47;20.03;;;6.07;;
3355;SDS011;1691;52.486;13.374;2024-02-21T00:17:14;15.10;;;5.53;;
3355;SDS011;1691;52.486;13.374;2024-02-21T00:19:42;19.20;;;5.20;;
3355;SDS011;1691;52.486;13.374;2024-02-21T00:22:09;18.20;;;6.00;;
3355;SDS011;1691;52.486;13.374;2024-02-21T00:24:37;22.03;;;5.80;;
3355;SDS011;1691;52.486;13.374;2024-02-21T00:27:04;21.80;;;6.97;;
3355;SDS011;1691;52.486;13.374;2024-02-21T00:29:32;26.67;;;6.37;;
3355;SDS011;1691;52.486;13.374;2024-02-21T00:32:01;25.33;;;6.60;;
3355;SDS011;1691;52.486;13.374;2024-02-21T00:34:28;34.20;;;6.87;;
3355;SDS011;1691;52.486;13.374;2024-02-21T00:36:55;12.37;;;4.97;;
3355;SDS011;1691;52.486;13.374;2024-02-21T00:39:23;22.30;;;6.20;;
3355;SDS011;1691;52.486;13.374;2024-02-21T00:41:50;15.47;;;6.57;;
3355;SDS011;1691;52.486;13.374;2024-02-21T00:44:17;11.77;;;4.60;;
3355;SDS011;1691;52.486;13.374;2024-02-21T00:46:44;13.20;;;5.10;;
3355;SDS011;1691;52.486;13.374;2024-02-21T00:49:11;32.47;;;7.30;;
3355;SDS011;1691;52.486;13.374;2024-02-21T00:51:38;17.93;;;5.40;;
3355;SDS011;1691;52.486;13.374;2024-02-21T00:54:05;19.93;;;5.70;;
3355;SDS011;1691;52.486;13.374;2024-02-21T00:56:32;17.13;;;4.40;;
3355;SDS011;1691;52.486;13.374;2024-02-21T00:58:59;20.43;;;7.33;;
3355;SDS011;1691;52.486;13.374;2024-02-21T01:01:26;23.13;;;5.77;;
3355;SDS011;1691;52.486;13.374;2024-02-21T01:03:53;11.47;;;5.00;;
3355;SDS011;1691;52.486;13.374;2024-02-21T01:06:21;21.03;;;5.53;;
3355;SDS011;1691;52.486;13.374;2024-02-21T01:08:48;12.67;;;4.53;;
3355;SDS011;1691;52.486;13.374;2024-02-21T01:11:16;14.23;;;5.87;;
3355;SDS011;1691;52.486;13.374;2024-02-21T01:13:43;16.63;;;5.20;;
3355;SDS011;1691;52.486;13.374;2024-02-21T01:16:11;13.57;;;4.47;;
3355;SDS011;1691;52.486;13.374;2024-02-21T01:18:38;10.30;;;4.30;;
3355;SDS011;1691;52.486;13.374;2024-02-21T01:21:08;10.63;;;4.37;;
3355;SDS011;1691;52.486;13.374;2024-02-21T01:23:36;22.20;;;4.40;;
3355;SDS011;1691;52.486;13.374;2024-02-21T01:26:03;14.50;;;5.17;;
3355;SDS011;1691;52.486;13.374;2024-02-21T01:28:31;19.70;;;5.07;;
3355;SDS011;1691;52.486;13.374;2024-02-21T01:30:58;18.73;;;5.90;;
3355;SDS011;1691;52.486;13.374;2024-02-21T01:33:25;13.87;;;4.83;;
3355;SDS011;1691;52.486;13.374;2024-02-21T01:35:52;25.00;;;6.60;;
3355;SDS011;1691;52.486;13.374;2024-02-21T01:38:19;14.63;;;5.00;;
3355;SDS011;1691;52.486;13.374;2024-02-21T01:40:47;11.90;;;3.90;;
3355;SDS011;1691;52.486;13.374;2024-02-21T01:43:18;19.37;;;6.07;;
3355;SDS011;1691;52.486;13.374;2024-02-21T01:45:48;16.17;;;4.77;;
3355;SDS011;1691;52.486;13.374;2024-02-21T01:48:21;15.40;;;4.37;;
3355;SDS011;1691;52.486;13.374;2024-02-21T01:50:50;13.07;;;4.80;;
3355;SDS011;1691;52.486;13.374;2024-02-21T01:53:19;17.63;;;6.63;;
3355;SDS011;1691;52.486;13.374;2024-02-21T01:55:49;9.60;;;4.63;;
3355;SDS011;1691;52.486;13.374;2024-02-21T01:58:16;33.80;;;5.40;;
3355;SDS011;1691;52.486;13.374;2024-02-21T02:00:45;19.47;;;4.93;;
3355;SDS011;1691;52.486;13.374;2024-02-21T02:03:14;12.83;;;4.70;;
3355;SDS011;1691;52.486;13.374;2024-02-21T02:08:15;17.53;;;4.90;;
3355;SDS011;1691;52.486;13.374;2024-02-21T02:10:45;14.10;;;4.17;;
3355;SDS011;1691;52.486;13.374;2024-02-21T02:13:15;14.10;;;4.70;;
3355;SDS011;1691;52.486;13.374;2024-02-21T02:29:48;18.60;;;5.30;;
3355;SDS011;1691;52.486;13.374;2024-02-21T02:32:16;9.67;;;3.80;;
3355;SDS011;1691;52.486;13.374;2024-02-21T02:34:43;22.07;;;4.87;;
3355;SDS011;1691;52.486;13.374;2024-02-21T02:37:11;20.20;;;5.60;;
3355;SDS011;1691;52.486;13.374;2024-02-21T02:39:38;9.37;;;4.83;;
3355;SDS011;1691;52.486;13.374;2024-02-21T02:42:05;19.03;;;5.30;;
3355;SDS011;1691;52.486;13.374;2024-02-21T02:44:32;13.47;;;4.47;;
3355;SDS011;1691;52.486;13.374;2024-02-21T02:46:59;24.53;;;5.00;;
3355;SDS011;1691;52.486;13.374;2024-02-21T02:49:26;12.80;;;4.60;;
3355;SDS011;1691;52.486;13.374;2024-02-21T02:51:53;15.53;;;6.20;;
3355;SDS011;1691;52.486;13.374;2024-02-21T02:54:20;19.47;;;5.17;;
3355;SDS011;1691;52.486;13.374;2024-02-21T02:56:47;18.37;;;5.90;;
3355;SDS011;1691;52.486;13.374;2024-02-21T02:59:16;18.17;;;4.83;;
3355;SDS011;1691;52.486;13.374;2024-02-21T03:01:43;8.60;;;4.97;;
3355;SDS011;1691;52.486;13.374;2024-02-21T03:04:10;14.30;;;4.60;;
3355;SDS011;1691;52.486;13.374;2024-02-21T03:06:37;15.97;;;5.47;;
3355;SDS011;1691;52.486;13.374;2024-02-21T03:09:04;14.50;;;5.80;;
3355;SDS011;1691;52.486;13.374;2024-02-21T03:11:35;13.00;;;5.40;;
3355;SDS011;1691;52.486;13.374;2024-02-21T03:14:04;19.13;;;5.30;;
3355;SDS011;1691;52.486;13.374;2024-02-21T03:16:31;13.03;;;5.10;;
3355;SDS011;1691;52.486;13.374;2024-02-21T03:18:58;13.00;;;6.80;;
3355;SDS011;1691;52.486;13.374;2024-02-21T03:21:25;14.50;;;5.87;;
3355;SDS011;1691;52.486;13.374;2024-02-21T03:23:52;17.33;;;5.80;;
3355;SDS011;1691;52.486;13.374;2024-02-21T03:26:19;18.63;;;5.50;;
3355;SDS011;1691;52.486;13.374;2024-02-21T03:28:46;12.77;;;5.27;;
3355;SDS011;1691;52.486;13.374;2024-02-21T03:31:13;11.97;;;5.73;;
3355;SDS011;1691;52.486;13.374;2024-02-21T03:33:42;14.83;;;5.07;;
3355;SDS011;1691;52.486;13.374;2024-02-21T03:36:13;18.77;;;5.70;;
3355;SDS011;1691;52.486;13.374;2024-02-21T03:38:41;17.17;;;6.00;;
3355;SDS011;1691;52.486;13.374;2024-02-21T03:41:08;13.10;;;5.00;;
3355;SDS011;1691;52.486;13.374;2024-02-21T03:43:37;17.07;;;5.80;;
3355;SDS011;1691;52.486;13.374;2024-02-21T03:46:05;12.70;;;4.90;;
3355;SDS011;1691;52.486;13.374;2024-02-21T03:48:33;22.17;;;6.03;;
3355;SDS011;1691;52.486;13.374;2024-02-21T03:51:00;16.20;;;6.40;;
3355;SDS011;1691;52.486;13.374;2024-02-21T03:53:27;21.10;;;6.67;;
3355;SDS011;1691;52.486;13.374;2024-02-21T03:55:55;16.70;;;5.97;;
3355;SDS011;1691;52.486;13.374;2024-02-21T03:58:22;19.00;;;6.07;;
3355;SDS011;1691;52.486;13.374;2024-02-21T04:00:49;14.87;;;7.20;;
3355;SDS011;1691;52.486;13.374;2024-02-21T04:03:18;15.23;;;6.17;;
3355;SDS011;1691;52.486;13.374;2024-02-21T04:05:46;11.60;;;5.33;;
3355;SDS011;1691;52.486;13.374;2024-02-21T04:08:13;18.27;;;6.07;;
3355;SDS011;1691;52.486;13.374;2024-02-21T04:10:40;18.33;;;5.70;;
3355;SDS011;1691;52.486;13.374;2024-02-21T04:13:07;21.00;;;6.33;;
3355;SDS011;1691;52.486;13.374;2024-02-21T04:15:35;16.70;;;7.13;;
3355;SDS011;1691;52.486;13.374;2024-02-21T04:18:02;17.43;;;5.63;;
3355;SDS011;1691;52.486;13.374;2024-02-21T04:20:29;23.63;;;6.60;;
3355;SDS011;1691;52.486;13.374;2024-02-21T04:22:57;16.73;;;5.43;;
3355;SDS011;1691;52.486;13.374;2024-02-21T04:25:24;19.80;;;7.60;;
3355;SDS011;1691;52.486;13.374;2024-02-21T04:27:51;16.50;;;6.40;;
3355;SDS011;1691;52.486;13.374;2024-02-21T04:30:19;17.23;;;6.93;;
3355;SDS011;1691;52.486;13.374;2024-02-21T04:32:46;17.47;;;7.33;;
3355;SDS011;1691;52.486;13.374;2024-02-21T04:35:13;16.60;;;6.37;;
3355;SDS011;1691;52.486;13.374;2024-02-21T04:37:40;11.67;;;6.30;;
3355;SDS011;1691;52.486;13.374;2024-02-21T04:40:07;17.47;;;6.10;;
3355;SDS011;1691;52.486;13.374;2024-02-21T04:42:35;23.17;;;6.80;;
3355;SDS011;1691;52.486;13.374;2024-02-21T04:45:02;24.47;;;7.10;;
3355;SDS011;1691;52.486;13.374;2024-02-21T04:47:30;13.50;;;6.53;;
3355;SDS011;1691;52.486;13.374;2024-02-21T04:49:57;24.03;;;6.73;;
3355;SDS011;1691;52.486;13.374;2024-02-21T04:52:24;13.83;;;5.93;;
3355;SDS011;1691;52.486;13.374;2024-02-21T04:54:51;15.33;;;6.57;;
3355;SDS011;1691;52.486;13.374;2024-02-21T04:57:18;15.37;;;6.17;;
3355;SDS011;1691;52.486;13.374;2024-02-21T04:59:45;16.87;;;6.63;;
3355;SDS011;1691;52.486;13.374;2024-02-21T05:02:16;17.20;;;5.70;;
3355;SDS011;1691;52.486;13.374;2024-02-21T05:04:43;26.70;;;6.47;;
3355;SDS011;1691;52.486;13.374;2024-02-21T05:07:10;15.97;;;6.23;;
3355;SDS011;1691;52.486;13.374;2024-02-21T05:09:38;18.87;;;6.13;;
3355;SDS011;1691;52.486;13.374;2024-02-21T05:12:05;18.97;;;6.90;;
3355;SDS011;1691;52.486;13.374;2024-02-21T05:14:32;15.23;;;5.80;;
3355;SDS011;1691;52.486;13.374;2024-02-21T05:17:00;12.43;;;6.27;;
3355;SDS011;1691;52.486;13.374;2024-02-21T05:19:27;9.20;;;6.23;;
3355;SDS011;1691;52.486;13.374;2024-02-21T05:21:54;26.13;;;8.13;;
3355;SDS011;1691;52.486;13.374;2024-02-21T05:24:22;26.80;;;7.47;;
3355;SDS011;1691;52.486;13.374;2024-02-21T05:26:49;16.37;;;6.50;;
3355;SDS011;1691;52.486;13.374;2024-02-21T05:29:16;23.93;;;7.93;;
3355;SDS011;1691;52.486;13.374;2024-02-21T05:31:55;15.40;;;6.80;;
3355;SDS011;1691;52.486;13.374;2024-02-21T05:34:24;9.60;;;6.23;;
3355;SDS011;1691;52.486;13.374;2024-02-21T05:36:52;18.33;;;6.03;;
3355;SDS011;1691;52.486;13.374;2024-02-21T05:39:19;20.63;;;7.33;;
3355;SDS011;1691;52.486;13.374;2024-02-21T05:41:49;23.57;;;11.17;;
3355;SDS011;1691;52.486;13.374;2024-02-21T05:44:17;19.40;;;7.60;;
3355;SDS011;1691;52.486;13.374;2024-02-21T05:46:45;20.43;;;8.73;;
3355;SDS011;1691;52.486;13.374;2024-02-21T05:49:13;18.67;;;6.50;;
3355;SDS011;1691;52.486;13.374;2024-02-21T05:51:40;24.03;;;7.40;;
3355;SDS011;1691;52.486;13.374;2024-02-21T05:54:07;18.63;;;7.23;;
3355;SDS011;1691;52.486;13.374;2024-02-21T05:56:34;8.20;;;5.87;;
3355;SDS011;1691;52.486;13.374;2024-02-21T05:59:02;15.93;;;6.37;;
3355;SDS011;1691;52.486;13.374;2024-02-21T06:01:29;14.47;;;6.43;;
3355;SDS011;1691;52.486;13.374;2024-02-21T06:03:57;16.80;;;7.17;;
3355;SDS011;1691;52.486;13.374;2024-02-21T06:06:24;17.53;;;7.67;;
3355;SDS011;1691;52.486;13.374;2024-02-21T06:08:51;38.43;;;8.23;;
3355;SDS011;1691;52.486;13.374;2024-02-21T06:11:18;34.47;;;7.10;;
3355;SDS011;1691;52.486;13.374;2024-02-21T06:13:45;21.33;;;7.70;;
3355;SDS011;1691;52.486;13.374;2024-02-21T06:16:12;15.53;;;6.30;;
3355;SDS011;1691;52.486;13.374;2024-02-21T06:18:39;18.70;;;7.23;;
3355;SDS011;1691;52.486;13.374;2024-02-21T06:21:07;16.90;;;7.13;;
3355;SDS011;1691;52.486;13.374;2024-02-21T06:23:34;19.00;;;7.30;;
3355;SDS011;1691;52.486;13.374;2024-02-21T06:26:04;23.47;;;8.70;;
3355;SDS011;1691;52.486;13.374;2024-02-21T06:28:31;20.10;;;6.63;;
3355;SDS011;1691;52.486;13.374;2024-02-21T06:30:58;15.90;;;7.67;;
3355;SDS011;1691;52.486;13.374;2024-02-21T06:33:25;12.80;;;7.63;;
3355;SDS011;1691;52.486;13.374;2024-02-21T06:35:52;15.93;;;7.40;;
3355;SDS011;1691;52.486;13.374;2024-02-21T06:38:20;24.03;;;10.10;;
3355;SDS011;1691;52.486;13.374;2024-02-21T06:40:47;24.27;;;8.50;;
3355;SDS011;1691;52.486;13.374;2024-02-21T06:43:17;20.27;;;7.17;;
3355;SDS011;1691;52.486;13.374;2024-02-21T06:45:45;17.73;;;7.47;;
3355;SDS011;1691;52.486;13.374;2024-02-21T06:48:18;16.70;;;7.77;;
3355;SDS011;1691;52.486;13.374;2024-02-21T06:50:46;14.87;;;8.03;;
3355;SDS011;1691;52.486;13.374;2024-02-21T06:53:13;17.97;;;7.50;;
3355;SDS011;1691;52.486;13.374;2024-02-21T06:55:40;13.50;;;7.43;;
3355;SDS011;1691;52.486;13.374;2024-02-21T06:58:07;23.23;;;7.47;;
3355;SDS011;1691;52.486;13.374;2024-02-21T07:00:38;11.13;;;7.17;;
3355;SDS011;1691;52.486;13.374;2024-02-21T07:03:06;15.03;;;7.60;;
3355;SDS011;1691;52.486;13.374;2024-02-21T07:05:33;19.40;;;7.47;;
3355;SDS011;1691;52.486;13.374;2024-02-21T07:08:01;17.27;;;7.20;;
3355;SDS011;1691;52.486;13.374;2024-02-21T07:10:29;29.00;;;7.30;;
3355;SDS011;1691;52.486;13.374;2024-02-21T07:12:56;21.07;;;8.23;;
3355;SDS011;1691;52.486;13.374;2024-02-21T07:15:23;18.80;;;7.60;;
3355;SDS011;1691;52.486;13.374;2024-02-21T07:17:53;19.43;;;7.77;;
3355;SDS011;1691;52.486;13.374;2024-02-21T07:20:20;19.67;;;8.03;;
3355;SDS011;1691;52.486;13.374;2024-02-21T07:22:47;19.30;;;7.77;;
3355;SDS011;1691;52.486;13.374;2024-02-21T07:25:14;16.93;;;8.27;;
3355;SDS011;1691;52.486;13.374;2024-02-21T07:27:42;20.57;;;7.57;;
3355;SDS011;1691;52.486;13.374;2024-02-21T07:30:10;16.03;;;7.50;;
3355;SDS011;1691;52.486;13.374;2024-02-21T07:32:42;17.20;;;6.77;;
3355;SDS011;1691;52.486;13.374;2024-02-21T07:35:09;14.30;;;7.20;;
3355;SDS011;1691;52.486;13.374;2024-02-21T07:37:38;26.73;;;8.20;;
3355;SDS011;1691;52.486;13.374;2024-02-21T07:40:05;15.40;;;6.37;;
3355;SDS011;1691;52.486;13.374;2024-02-21T07:42:38;12.07;;;6.73;;
3355;SDS011;1691;52.486;13.374;2024-02-21T07:45:05;14.33;;;6.77;;
3355;SDS011;1691;52.486;13.374;2024-02-21T07:47:34;18.13;;;6.90;;
3355;SDS011;1691;52.486;13.374;2024-02-21T07:50:01;8.80;;;6.70;;
3355;SDS011;1691;52.486;13.374;2024-02-21T07:52:29;12.70;;;6.53;;
3355;SDS011;1691;52.486;13.374;2024-02-21T07:54:56;15.00;;;7.70;;
3355;SDS011;1691;52.486;13.374;2024-02-21T07:57:23;11.70;;;7.23;;
3355;SDS011;1691;52.486;13.374;2024-02-21T07:59:50;20.70;;;7.97;;
3355;SDS011;1691;52.486;13.374;2024-02-21T08:02:17;18.23;;;7.10;;
3355;SDS011;1691;52.486;13.374;2024-02-21T08:04:44;11.70;;;6.03;;
3355;SDS011;1691;52.486;13.374;2024-02-21T08:07:11;15.30;;;6.07;;
3355;SDS011;1691;52.486;13.374;2024-02-21T08:09:39;14.13;;;6.10;;
3355;SDS011;1691;52.486;13.374;2024-02-21T08:12:06;17.37;;;7.10;;
3355;SDS011;1691;52.486;13.374;2024-02-21T08:14:33;18.10;;;6.50;;
3355;SDS011;1691;52.486;13.374;2024-02-21T08:17:01;9.43;;;5.70;;
3355;SDS011;1691;52.486;13.374;2024-02-21T08:19:28;16.67;;;7.07;;
3355;SDS011;1691;52.486;13.374;2024-02-21T08:21:56;13.50;;;6.30;;
3355;SDS011;1691;52.486;13.374;2024-02-21T08:24:23;11.60;;;6.57;;
3355;SDS011;1691;52.486;13.374;2024-02-21T08:26:50;10.30;;;6.83;;
3355;SDS011;1691;52.486;13.374;2024-02-21T08:29:16;11.80;;;6.53;;
3355;SDS011;1691;52.486;13.374;2024-02-21T08:31:43;14.40;;;7.47;;
3355;SDS011;1691;52.486;13.374;2024-02-21T08:34:10;13.23;;;6.20;;
3355;SDS011;1691;52.486;13.374;2024-02-21T08:36:39;14.13;;;7.70;;
3355;SDS011;1691;52.486;13.374;2024-02-21T08:39:07;12.80;;;7.73;;
3355;SDS011;1691;52.486;13.374;2024-02-21T08:41:36;15.73;;;7.57;;
3355;SDS011;1691;52.486;13.374;2024-02-21T08:44:25;16.03;;;7.27;;
3355;SDS011;1691;52.486;13.374;2024-02-21T08:46:54;13.03;;;6.40;;
3355;SDS011;1691;52.486;13.374;2024-02-21T08:49:21;18.60;;;6.97;;
3355;SDS011;1691;52.486;13.374;2024-02-21T08:51:49;14.90;;;6.80;;
3355;SDS011;1691;52.486;13.374;2024-02-21T08:54:16;16.83;;;7.93;;
3355;SDS011;1691;52.486;13.374;2024-02-21T08:56:43;24.73;;;7.90;;
3355;SDS011;1691;52.486;13.374;2024-02-21T08:59:10;16.40;;;6.67;;
3355;SDS011;1691;52.486;13.374;2024-02-21T09:01:37;10.37;;;7.13;;
3355;SDS011;1691;52.486;13.374;2024-02-21T09:04:04;13.77;;;5.73;;
3355;SDS011;1691;52.486;13.374;2024-02-21T09:06:32;26.00;;;8.70;;
3355;SDS011;1691;52.486;13.374;2024-02-21T09:09:00;13.70;;;7.07;;
3355;SDS011;1691;52.486;13.374;2024-02-21T09:11:27;21.93;;;8.47;;
3355;SDS011;1691;52.486;13.374;2024-02-21T09:13:55;21.13;;;8.70;;
3355;SDS011;1691;52.486;13.374;2024-02-21T09:16:22;22.40;;;7.87;;
3355;SDS011;1691;52.486;13.374;2024-02-21T09:18:50;19.00;;;8.40;;
3355;SDS011;1691;52.486;13.374;2024-02-21T09:21:17;18.53;;;9.10;;
3355;SDS011;1691;52.486;13.374;2024-02-21T09:23:45;22.93;;;8.67;;
3355;SDS011;1691;52.486;13.374;2024-02-21T09:26:12;8.93;;;6.77;;
3355;SDS011;1691;52.486;13.374;2024-02-21T09:28:42;19.70;;;8.77;;
3355;SDS011;1691;52.486;13.374;2024-02-21T09:31:13;13.30;;;7.80;;
3355;SDS011;1691;52.486;13.374;2024-02-21T09:33:40;18.33;;;8.70;;
3355;SDS011;1691;52.486;13.374;2024-02-21T09:36:07;12.07;;;8.07;;
3355;SDS011;1691;52.486;13.374;2024-02-21T09:38:34;13.50;;;7.90;;
3355;SDS011;1691;52.486;13.374;2024-02-21T09:41:17;11.93;;;7.20;;
3355;SDS011;1691;52.486;13.374;2024-02-21T09:43:56;18.73;;;8.90;;
3355;SDS011;1691;52.486;13.374;2024-02-21T09:46:33;11.73;;;7.70;;
3355;SDS011;1691;52.486;13.374;2024-02-21T09:51:59;28.77;;;8.27;;
3355;SDS011;1691;52.486;13.374;2024-02-21T09:54:32;12.70;;;8.13;;
3355;SDS011;1691;52.486;13.374;2024-02-21T09:57:00;9.90;;;7.43;;
3355;SDS011;1691;52.486;13.374;2024-02-21T09:59:30;18.97;;;10.33;;
3355;SDS011;1691;52.486;13.374;2024-02-21T10:01:59;27.33;;;11.53;;
3355;SDS011;1691;52.486;13.374;2024-02-21T10:04:27;46.10;;;22.87;;
3355;SDS011;1691;52.486;13.374;2024-02-21T10:06:54;12.27;;;7.20;;
3355;SDS011;1691;52.486;13.374;2024-02-21T10:09:25;11.17;;;8.30;;
3355;SDS011;1691;52.486;13.374;2024-02-21T10:12:07;16.17;;;7.87;;
3355;SDS011;1691;52.486;13.374;2024-02-21T10:14:39;17.60;;;7.60;;
3355;SDS011;1691;52.486;13.374;2024-02-21T10:17:06;11.70;;;6.73;;
3355;SDS011;1691;52.486;13.374;2024-02-21T10:19:41;12.17;;;7.33;;
3355;SDS011;1691;52.486;13.374;2024-02-21T10:22:08;12.80;;;8.00;;
3355;SDS011;1691;52.486;13.374;2024-02-21T10:24:36;12.50;;;7.50;;
3355;SDS011;1691;52.486;13.374;2024-02-21T10:27:09;16.30;;;7.47;;
3355;SDS011;1691;52.486;13.374;2024-02-21T10:29:38;8.80;;;6.83;;
3355;SDS011;1691;52.486;13.374;2024-02-21T10:32:07;13.27;;;7.73;;
3355;SDS011;1691;52.486;13.374;2024-02-21T10:34:35;9.73;;;8.17;;
3355;SDS011;1691;52.486;13.374;2024-02-21T10:37:04;14.40;;;8.40;;
3355;SDS011;1691;52.486;13.374;2024-02-21T10:39:33;12.67;;;7.07;;
3355;SDS011;1691;52.486;13.374;2024-02-21T10:42:03;15.50;;;7.33;;
3355;SDS011;1691;52.486;13.374;2024-02-21T10:44:36;19.17;;;9.30;;
3355;SDS011;1691;52.486;13.374;2024-02-21T10:47:09;13.40;;;8.80;;
3355;SDS011;1691;52.486;13.374;2024-02-21T10:49:39;18.20;;;8.37;;
3355;SDS011;1691;52.486;13.374;2024-02-21T10:52:13;12.10;;;6.57;;
3355;SDS011;1691;52.486;13.374;2024-02-21T10:54:47;17.70;;;7.40;;
3355;SDS011;1691;52.486;13.374;2024-02-21T10:57:23;12.43;;;7.80;;
3355;SDS011;1691;52.486;13.374;2024-02-21T10:59:51;15.00;;;7.07;;
3355;SDS011;1691;52.486;13.374;2024-02-21T11:02:21;20.47;;;9.27;;
3355;SDS011;1691;52.486;13.374;2024-02-21T11:04:49;14.57;;;7.10;;
3355;SDS011;1691;52.486;13.374;2024-02-21T11:07:19;7.07;;;6.37;;
3355;SDS011;1691;52.486;13.374;2024-02-21T11:09:53;7.67;;;6.67;;
3355;SDS011;1691;52.486;13.374;2024-02-21T11:12:23;13.53;;;7.40;;
3355;SDS011;1691;52.486;13.374;2024-02-21T11:14:50;12.60;;;6.63;;
3355;SDS011;1691;52.486;13.374;2024-02-21T11:17:17;19.17;;;6.47;;
3355;SDS011;1691;52.486;13.374;2024-02-21T11:19:47;11.17;;;7.87;;
3355;SDS011;1691;52.486;13.374;2024-02-21T11:22:18;10.23;;;6.83;;
3355;SDS011;1691;52.486;13.374;2024-02-21T11:24:49;11.60;;;6.67;;
3355;SDS011;1691;52.486;13.374;2024-02-21T11:27:16;9.53;;;6.60;;
3355;SDS011;1691;52.486;13.374;2024-02-21T11:29:47;10.83;;;5.40;;
3355;SDS011;1691;52.486;13.374;2024-02-21T11:32:18;10.27;;;5.40;;
3355;SDS011;1691;52.486;13.374;2024-02-21T11:35:03;11.80;;;5.87;;
3355;SDS011;1691;52.486;13.374;2024-02-21T11:37:35;5.67;;;5.20;;
3355;SDS011;1691;52.486;13.374;2024-02-21T11:40:06;4.57;;;4.13;;
3355;SDS011;1691;52.486;13.374;2024-02-21T11:42:38;5.93;;;5.33;;
3355;SDS011;1691;52.486;13.374;2024-02-21T11:45:05;5.30;;;4.80;;
3355;SDS011;1691;52.486;13.374;2024-02-21T11:47:35;8.33;;;5.10;;
3355;SDS011;1691;52.486;13.374;2024-02-21T11:50:09;7.00;;;6.30;;
3355;SDS011;1691;52.486;13.374;2024-02-21T11:52:37;6.00;;;4.97;;
3355;SDS011;1691;52.486;13.374;2024-02-21T11:55:05;16.97;;;5.30;;
3355;SDS011;1691;52.486;13.374;2024-02-21T11:57:35;6.90;;;5.70;;
3355;SDS011;1691;52.486;13.374;2024-02-21T12:00:14;9.47;;;6.17;;
3355;SDS011;1691;52.486;13.374;2024-02-21T12:02:43;12.37;;;5.53;;
3355;SDS011;1691;52.486;13.374;2024-02-21T12:05:11;8.70;;;5.20;;
3355;SDS011;1691;52.486;13.374;2024-02-21T12:07:39;5.80;;;4.60;;
3355;SDS011;1691;52.486;13.374;2024-02-21T12:10:08;5.93;;;4.90;;
3355;SDS011;1691;52.486;13.374;2024-02-21T12:12:37;12.10;;;6.40;;
3355;SDS011;1691;52.486;13.374;2024-02-21T12:15:05;8.60;;;6.20;;
3355;SDS011;1691;52.486;13.374;2024-02-21T12:17:34;6.40;;;4.20;;
3355;SDS011;1691;52.486;13.374;2024-02-21T12:20:02;4.97;;;4.50;;
3355;SDS011;1691;52.486;13.374;2024-02-21T12:22:43;9.33;;;5.37;;
3355;SDS011;1691;52.486;13.374;2024-02-21T12:25:17;6.17;;;4.20;;
3355;SDS011;1691;52.486;13.374;2024-02-21T12:27:46;4.67;;;4.37;;
3355;SDS011;1691;52.486;13.374;2024-02-21T12:30:13;4.40;;;4.00;;
3355;SDS011;1691;52.486;13.374;2024-02-21T12:32:40;12.60;;;4.73;;
3355;SDS011;1691;52.486;13.374;2024-02-21T12:35:08;4.40;;;3.83;;
3355;SDS011;1691;52.486;13.374;2024-02-21T12:37:35;10.80;;;3.97;;
3355;SDS011;1691;52.486;13.374;2024-02-21T12:40:05;3.93;;;3.63;;
3355;SDS011;1691;52.486;13.374;2024-02-21T12:42:34;8.97;;;5.93;;
3355;SDS011;1691;52.486;13.374;2024-02-21T12:45:02;9.60;;;6.00;;
3355;SDS011;1691;52.486;13.374;2024-02-21T12:47:30;11.30;;;4.00;;
3355;SDS011;1691;52.486;13.374;2024-02-21T12:49:57;7.20;;;3.40;;
3355;SDS011;1691;52.486;13.374;2024-02-21T12:52:24;5.47;;;3.10;;
3355;SDS011;1691;52.486;13.374;2024-02-21T12:54:51;3.33;;;3.13;;
3355;SDS011;1691;52.486;13.374;2024-02-21T12:57:18;7.43;;;3.80;;
3355;SDS011;1691;52.486;13.374;2024-02-21T12:59:47;10.50;;;4.53;;
3355;SDS011;1691;52.486;13.374;2024-02-21T13:02:14;4.13;;;3.60;;
3355;SDS011;1691;52.486;13.374;2024-02-21T13:04:41;4.20;;;3.50;;
3355;SDS011;1691;52.486;13.374;2024-02-21T13:07:08;6.10;;;3.60;;
3355;SDS011;1691;52.486;13.374;2024-02-21T13:09:35;21.43;;;4.23;;
3355;SDS011;1691;52.486;13.374;2024-02-21T13:12:02;7.43;;;3.80;;
3355;SDS011;1691;52.486;13.374;2024-02-21T13:14:29;7.40;;;4.40;;
3355;SDS011;1691;52.486;13.374;2024-02-21T13:16:56;12.37;;;3.97;;
3355;SDS011;1691;52.486;13.374;2024-02-21T13:19:23;4.27;;;3.80;;
3355;SDS011;1691;52.486;13.374;2024-02-21T13:21:50;5.90;;;3.80;;
3355;SDS011;1691;52.486;13.374;2024-02-21T13:24:17;5.30;;;3.43;;
3355;SDS011;1691;52.486;13.374;2024-02-21T13:26:44;7.60;;;3.10;;
3355;SDS011;1691;52.486;13.374;2024-02-21T13:29:11;6.77;;;3.57;;
3355;SDS011;1691;52.486;13.374;2024-02-21T13:31:39;8.77;;;4.27;;
3355;SDS011;1691;52.486;13.374;2024-02-21T13:34:06;8.77;;;3.33;;
3355;SDS011;1691;52.486;13.374;2024-02-21T13:36:36;6.13;;;4.67;;
3355;SDS011;1691;52.486;13.374;2024-02-21T13:39:03;5.97;;;4.20;;
3355;SDS011;1691;52.486;13.374;2024-02-21T13:41:34;10.00;;;4.70;;
3355;SDS011;1691;52.486;13.374;2024-02-21T13:44:01;6.40;;;3.97;;
3355;SDS011;1691;52.486;13.374;2024-02-21T13:46:30;6.27;;;3.87;;
3355;SDS011;1691;52.486;13.374;2024-02-21T13:49:01;9.07;;;5.27;;
3355;SDS011;1691;52.486;13.374;2024-02-21T13:51:32;8.57;;;4.23;;
3355;SDS011;1691;52.486;13.374;2024-02-21T13:54:02;11.67;;;4.30;;
3355;SDS011;1691;52.486;13.374;2024-02-21T13:56:30;14.83;;;4.60;;
3355;SDS011;1691;52.486;13.374;2024-02-21T13:58:58;12.00;;;4.47;;
3355;SDS011;1691;52.486;13.374;2024-02-21T14:01:26;13.80;;;4.20;;
3355;SDS011;1691;52.486;13.374;2024-02-21T14:03:58;7.33;;;4.20;;
3355;SDS011;1691;52.486;13.374;2024-02-21T14:06:25;9.80;;;4.03;;
3355;SDS011;1691;52.486;13.374;2024-02-21T14:08:53;6.70;;;3.83;;
3355;SDS011;1691;52.486;13.374;2024-02-21T14:11:20;3.70;;;3.13;;
3355;SDS011;1691;52.486;13.374;2024-02-21T14:13:47;22.90;;;13.67;;
3355;SDS011;1691;52.486;13.374;2024-02-21T14:16:14;4.67;;;4.17;;
3355;SDS011;1691;52.486;13.374;2024-02-21T14:18:41;8.40;;;3.23;;
3355;SDS011;1691;52.486;13.374;2024-02-21T14:21:09;5.93;;;3.60;;
3355;SDS011;1691;52.486;13.374;2024-02-21T14:23:39;11.50;;;4.17;;
3355;SDS011;1691;52.486;13.374;2024-02-21T14:26:06;7.80;;;4.17;;
3355;SDS011;1691;52.486;13.374;2024-02-21T14:28:34;3.33;;;3.00;;
3355;SDS011;1691;52.486;13.374;2024-02-21T14:31:01;4.33;;;3.70;;
3355;SDS011;1691;52.486;13.374;2024-02-21T14:33:30;11.33;;;5.40;;
3355;SDS011;1691;52.486;13.374;2024-02-21T14:35:57;5.33;;;3.97;;
3355;SDS011;1691;52.486;13.374;2024-02-21T14:38:24;8.03;;;4.17;;
3355;SDS011;1691;52.486;13.374;2024-02-21T14:40:51;6.77;;;4.57;;
3355;SDS011;1691;52.486;13.374;2024-02-21T14:43:18;4.93;;;4.07;;
3355;SDS011;1691;52.486;13.374;2024-02-21T14:45:48;8.77;;;3.60;;
3355;SDS011;1691;52.486;13.374;2024-02-21T14:48:15;10.83;;;3.83;;
3355;SDS011;1691;52.486;13.374;2024-02-21T14:50:42;7.93;;;4.13;;
3355;SDS011;1691;52.486;13.374;2024-02-21T14:53:10;5.80;;;3.57;;
3355;SDS011;1691;52.486;13.374;2024-02-21T14:55:37;12.23;;;4.07;;
3355;SDS011;1691;52.486;13.374;2024-02-21T14:58:10;6.83;;;3.47;;
3355;SDS011;1691;52.486;13.374;2024-02-21T15:00:37;7.20;;;4.03;;
3355;SDS011;1691;52.486;13.374;2024-02-21T15:03:05;5.90;;;3.43;;
3355;SDS011;1691;52.486;13.374;2024-02-21T15:05:31;9.77;;;4.37;;
3355;SDS011;1691;52.486;13.374;2024-02-21T15:08:00;8.70;;;3.87;;
3355;SDS011;1691;52.486;13.374;2024-02-21T15:10:28;9.20;;;3.70;;
3355;SDS011;1691;52.486;13.374;2024-02-21T15:12:55;6.37;;;3.00;;
3355;SDS011;1691;52.486;13.374;2024-02-21T15:15:22;11.63;;;3.73;;
3355;SDS011;1691;52.486;13.374;2024-02-21T15:17:49;8.83;;;3.50;;
3355;SDS011;1691;52.486;13.374;2024-02-21T15:20:16;6.23;;;3.30;;